sensor_id;sensor_type;location;lat;lon;timestamp;pressure;altitude;pressure_sealevel;temperature;humidity
17060;BME280;8646;49.716;9.266;2023-01-31T00:01:15;101131.00;;;5.19;83.01
17060;BME280;8646;49.716;9.266;2023-01-31T00:04:19;101122.97;;;5.19;83.09
17060;BME280;8646;49.716;9.266;2023-01-31T00:07:22;101122.91;;;5.23;82.97
17060;BME280;8646;49.716;9.266;2023-01-31T00:10:25;101122.06;;;5.18;83.40
17060;BME280;8646;49.716;9.266;2023-01-31T00:13:27;101116.69;;;5.18;83.15
17060;BME280;8646;49.716;9.266;2023-01-31T00:16:30;101118.44;;;5.21;83.33
17060;BME280;8646;49.716;9.266;2023-01-31T00:19:35;101130.06;;;5.23;83.15
17060;BME280;8646;49.716;9.266;2023-01-31T00:22:37;101126.50;;;5.24;83.12
17060;BME280;8646;49.716;9.266;2023-01-31T00:25:40;101130.06;;;5.26;82.94
17060;BME280;8646;49.716;9.266;2023-01-31T00:28:44;101126.44;;;5.30;83.12
17060;BME280;8646;49.716;9.266;2023-01-31T00:31:47;101125.53;;;5.31;82.91
17060;BME280;8646;49.716;9.266;2023-01-31T00:34:51;101122.84;;;5.29;83.04
17060;BME280;8646;49.716;9.266;2023-01-31T00:37:55;101120.16;;;5.29;82.97
17060;BME280;8646;49.716;9.266;2023-01-31T00:40:57;101116.56;;;5.33;82.56
17060;BME280;8646;49.716;9.266;2023-01-31T00:44:01;101119.19;;;5.38;82.19
17060;BME280;8646;49.716;9.266;2023-01-31T00:47:04;101121.00;;;5.36;82.31
17060;BME280;8646;49.716;9.266;2023-01-31T00:50:13;101125.53;;;5.31;82.28
17060;BME280;8646;49.716;9.266;2023-01-31T00:53:16;101116.59;;;5.30;82.28
17060;BME280;8646;49.716;9.266;2023-01-31T00:56:24;101112.13;;;5.28;82.34
17060;BME280;8646;49.716;9.266;2023-01-31T00:59:27;101113.06;;;5.21;82.79
17060;BME280;8646;49.716;9.266;2023-01-31T01:02:29;101118.44;;;5.24;82.77
17060;BME280;8646;49.716;9.266;2023-01-31T01:05:33;101121.94;;;5.32;82.19
17060;BME280;8646;49.716;9.266;2023-01-31T01:08:39;101125.50;;;5.34;82.47
17060;BME280;8646;49.716;9.266;2023-01-31T01:11:42;101133.53;;;5.35;82.09
17060;BME280;8646;49.716;9.266;2023-01-31T01:14:45;101130.00;;;5.32;82.31
17060;BME280;8646;49.716;9.266;2023-01-31T01:17:48;101129.94;;;5.38;82.19
17060;BME280;8646;49.716;9.266;2023-01-31T01:20:52;101117.41;;;5.38;82.25
17060;BME280;8646;49.716;9.266;2023-01-31T01:23:57;101110.38;;;5.27;82.45
17060;BME280;8646;49.716;9.266;2023-01-31T01:27:01;101128.16;;;5.35;82.40
17060;BME280;8646;49.716;9.266;2023-01-31T01:30:06;101130.81;;;5.40;82.26
17060;BME280;8646;49.716;9.266;2023-01-31T01:33:09;101138.88;;;5.37;82.34
17060;BME280;8646;49.716;9.266;2023-01-31T01:36:15;101132.69;;;5.30;82.31
17060;BME280;8646;49.716;9.266;2023-01-31T01:39:22;101134.38;;;5.42;82.01
17060;BME280;8646;49.716;9.266;2023-01-31T01:42:26;101134.34;;;5.45;81.82
17060;BME280;8646;49.716;9.266;2023-01-31T01:45:35;101139.69;;;5.47;82.02
17060;BME280;8646;49.716;9.266;2023-01-31T01:48:37;101130.75;;;5.48;82.44
17060;BME280;8646;49.716;9.266;2023-01-31T01:51:42;101126.34;;;5.42;82.21
17060;BME280;8646;49.716;9.266;2023-01-31T01:54:48;101128.16;;;5.37;82.63
17060;BME280;8646;49.716;9.266;2023-01-31T01:57:56;101140.66;;;5.38;82.36
17060;BME280;8646;49.716;9.266;2023-01-31T02:01:03;101150.50;;;5.39;82.91
17060;BME280;8646;49.716;9.266;2023-01-31T02:04:20;101150.56;;;5.33;82.90
17060;BME280;8646;49.716;9.266;2023-01-31T02:07:25;101147.84;;;5.37;82.88
17060;BME280;8646;49.716;9.266;2023-01-31T02:10:31;101142.47;;;5.39;82.35
17060;BME280;8646;49.716;9.266;2023-01-31T02:13:36;101144.25;;;5.37;82.62
17060;BME280;8646;49.716;9.266;2023-01-31T02:16:39;101160.34;;;5.37;82.73
17060;BME280;8646;49.716;9.266;2023-01-31T02:19:51;101160.34;;;5.37;82.69
17060;BME280;8646;49.716;9.266;2023-01-31T02:23:24;101165.72;;;5.37;82.64
17060;BME280;8646;49.716;9.266;2023-01-31T02:30:24;101164.00;;;5.33;82.37
17060;BME280;8646;49.716;9.266;2023-01-31T02:33:38;101174.72;;;5.33;82.33
17060;BME280;8646;49.716;9.266;2023-01-31T02:36:53;101166.69;;;5.30;82.33
17060;BME280;8646;49.716;9.266;2023-01-31T02:40:07;101166.66;;;5.34;82.46
17060;BME280;8646;49.716;9.266;2023-01-31T02:43:19;101165.78;;;5.31;82.36
17060;BME280;8646;49.716;9.266;2023-01-31T02:46:30;101160.44;;;5.28;82.09
17060;BME280;8646;49.716;9.266;2023-01-31T02:49:40;101158.63;;;5.30;82.07
17060;BME280;8646;49.716;9.266;2023-01-31T02:52:49;101155.13;;;5.22;82.14
17060;BME280;8646;49.716;9.266;2023-01-31T02:55:56;101162.28;;;5.20;82.04
17060;BME280;8646;49.716;9.266;2023-01-31T02:59:21;101149.81;;;5.17;82.20
17060;BME280;8646;49.716;9.266;2023-01-31T03:02:27;101154.34;;;5.09;82.20
17060;BME280;8646;49.716;9.266;2023-01-31T03:05:32;101159.75;;;5.00;82.46
17060;BME280;8646;49.716;9.266;2023-01-31T03:08:35;101167.81;;;4.95;82.39
17060;BME280;8646;49.716;9.266;2023-01-31T03:11:43;101166.06;;;4.93;82.64
17060;BME280;8646;49.716;9.266;2023-01-31T03:14:58;101170.53;;;4.92;82.51
17060;BME280;8646;49.716;9.266;2023-01-31T03:18:06;101166.06;;;4.94;82.27
17060;BME280;8646;49.716;9.266;2023-01-31T03:21:15;101176.81;;;4.91;82.78
17060;BME280;8646;49.716;9.266;2023-01-31T03:24:20;101166.97;;;4.93;82.56
17060;BME280;8646;49.716;9.266;2023-01-31T03:27:27;101167.81;;;5.02;82.43
17060;BME280;8646;49.716;9.266;2023-01-31T03:30:33;101175.84;;;5.00;82.45
17060;BME280;8646;49.716;9.266;2023-01-31T03:33:39;101187.47;;;4.99;82.74
17060;BME280;8646;49.716;9.266;2023-01-31T03:36:51;101181.22;;;5.00;82.43
17060;BME280;8646;49.716;9.266;2023-01-31T03:39:59;101192.81;;;5.07;82.11
17060;BME280;8646;49.716;9.266;2023-01-31T03:43:10;101197.28;;;5.08;82.42
17060;BME280;8646;49.716;9.266;2023-01-31T03:46:16;101205.28;;;5.14;81.74
17060;BME280;8646;49.716;9.266;2023-01-31T03:49:25;101225.84;;;5.12;81.59
17060;BME280;8646;49.716;9.266;2023-01-31T03:52:33;101229.41;;;5.15;81.71
17060;BME280;8646;49.716;9.266;2023-01-31T03:55:41;101233.00;;;5.17;81.06
17060;BME280;8646;49.716;9.266;2023-01-31T03:58:47;101237.47;;;5.17;81.32
17060;BME280;8646;49.716;9.266;2023-01-31T04:01:54;101226.63;;;5.30;80.12
17060;BME280;8646;49.716;9.266;2023-01-31T04:05:03;101213.38;;;5.08;80.55
17060;BME280;8646;49.716;9.266;2023-01-31T04:08:08;101199.91;;;5.14;80.93
17060;BME280;8646;49.716;9.266;2023-01-31T04:11:13;101206.16;;;5.13;80.90
17060;BME280;8646;49.716;9.266;2023-01-31T04:14:17;101208.88;;;5.10;81.00
17060;BME280;8646;49.716;9.266;2023-01-31T04:17:19;101210.63;;;5.17;80.73
17060;BME280;8646;49.716;9.266;2023-01-31T04:20:22;101210.69;;;5.11;80.64
17060;BME280;8646;49.716;9.266;2023-01-31T04:23:26;101219.63;;;5.07;80.82
17060;BME280;8646;49.716;9.266;2023-01-31T04:26:29;101224.09;;;5.09;80.78
17060;BME280;8646;49.716;9.266;2023-01-31T04:29:32;101213.34;;;5.11;80.18
17060;BME280;8646;49.716;9.266;2023-01-31T04:32:35;101208.91;;;5.07;80.28
17060;BME280;8646;49.716;9.266;2023-01-31T04:35:38;101202.56;;;5.17;79.22
17060;BME280;8646;49.716;9.266;2023-01-31T04:38:42;101218.72;;;5.06;79.66
17060;BME280;8646;49.716;9.266;2023-01-31T04:41:45;101216.09;;;5.02;79.95
17060;BME280;8646;49.716;9.266;2023-01-31T04:44:48;101214.31;;;5.01;80.09
17060;BME280;8646;49.716;9.266;2023-01-31T04:47:50;101210.69;;;5.05;79.97
17060;BME280;8646;49.716;9.266;2023-01-31T04:50:53;101201.78;;;4.99;80.27
17060;BME280;8646;49.716;9.266;2023-01-31T04:53:57;101200.91;;;5.01;80.47
17060;BME280;8646;49.716;9.266;2023-01-31T04:57:00;101202.69;;;5.02;80.01
17060;BME280;8646;49.716;9.266;2023-01-31T05:00:04;101200.00;;;4.98;80.52
17060;BME280;8646;49.716;9.266;2023-01-31T05:03:07;101186.59;;;4.95;80.14
17060;BME280;8646;49.716;9.266;2023-01-31T05:06:10;101185.72;;;4.95;80.10
17060;BME280;8646;49.716;9.266;2023-01-31T05:09:14;101182.16;;;4.91;80.11
17060;BME280;8646;49.716;9.266;2023-01-31T05:12:18;101175.91;;;4.92;80.02
17060;BME280;8646;49.716;9.266;2023-01-31T05:15:21;101171.41;;;4.96;79.89
17060;BME280;8646;49.716;9.266;2023-01-31T05:18:24;101169.59;;;4.96;79.69
17060;BME280;8646;49.716;9.266;2023-01-31T05:21:27;101185.75;;;4.93;79.80
17060;BME280;8646;49.716;9.266;2023-01-31T05:24:32;101163.38;;;4.94;79.81
17060;BME280;8646;49.716;9.266;2023-01-31T05:27:34;101175.91;;;4.91;79.51
17060;BME280;8646;49.716;9.266;2023-01-31T05:30:37;101159.81;;;4.94;79.09
17060;BME280;8646;49.716;9.266;2023-01-31T05:33:40;101166.09;;;4.88;79.23
17060;BME280;8646;49.716;9.266;2023-01-31T05:36:43;101170.59;;;4.82;78.84
17060;BME280;8646;49.716;9.266;2023-01-31T05:39:47;101168.84;;;4.76;79.05
17060;BME280;8646;49.716;9.266;2023-01-31T05:42:53;101173.38;;;4.65;78.65
17060;BME280;8646;49.716;9.266;2023-01-31T05:45:56;101168.97;;;4.47;79.11
17060;BME280;8646;49.716;9.266;2023-01-31T05:48:59;101177.97;;;4.31;79.39
17060;BME280;8646;49.716;9.266;2023-01-31T05:52:02;101183.41;;;4.17;79.62
17060;BME280;8646;49.716;9.266;2023-01-31T05:55:07;101187.00;;;4.06;79.74
17060;BME280;8646;49.716;9.266;2023-01-31T05:58:10;101179.88;;;4.00;80.03
17060;BME280;8646;49.716;9.266;2023-01-31T06:01:13;101190.59;;;3.94;80.19
17060;BME280;8646;49.716;9.266;2023-01-31T06:04:15;101179.91;;;3.94;80.37
17060;BME280;8646;49.716;9.266;2023-01-31T06:07:18;101180.75;;;3.98;80.70
17060;BME280;8646;49.716;9.266;2023-01-31T06:10:23;101180.78;;;4.02;80.47
17060;BME280;8646;49.716;9.266;2023-01-31T06:13:26;101168.25;;;4.13;80.47
17060;BME280;8646;49.716;9.266;2023-01-31T06:16:28;101176.22;;;4.24;80.18
17060;BME280;8646;49.716;9.266;2023-01-31T06:19:31;101178.91;;;4.26;80.25
17060;BME280;8646;49.716;9.266;2023-01-31T06:22:34;101171.75;;;4.26;80.12
17060;BME280;8646;49.716;9.266;2023-01-31T06:25:38;101171.75;;;4.26;79.93
17060;BME280;8646;49.716;9.266;2023-01-31T06:28:41;101182.47;;;4.25;79.92
17060;BME280;8646;49.716;9.266;2023-01-31T06:31:46;101174.44;;;4.28;80.04
17060;BME280;8646;49.716;9.266;2023-01-31T06:34:49;101178.91;;;4.26;80.04
17060;BME280;8646;49.716;9.266;2023-01-31T06:37:53;101174.44;;;4.26;79.90
17060;BME280;8646;49.716;9.266;2023-01-31T06:40:57;101179.81;;;4.26;79.73
17060;BME280;8646;49.716;9.266;2023-01-31T06:44:00;101181.56;;;4.32;79.67
17060;BME280;8646;49.716;9.266;2023-01-31T06:47:03;101172.59;;;4.42;79.33
17060;BME280;8646;49.716;9.266;2023-01-31T06:50:06;101175.31;;;4.36;79.35
17060;BME280;8646;49.716;9.266;2023-01-31T06:53:09;101185.13;;;4.35;79.19
17060;BME280;8646;49.716;9.266;2023-01-31T06:56:13;101186.06;;;4.30;79.22
17060;BME280;8646;49.716;9.266;2023-01-31T06:59:16;101183.34;;;4.33;78.87
17060;BME280;8646;49.716;9.266;2023-01-31T07:02:19;101178.00;;;4.23;79.13
17060;BME280;8646;49.716;9.266;2023-01-31T07:05:22;101180.66;;;4.36;78.82
17060;BME280;8646;49.716;9.266;2023-01-31T07:08:25;101182.41;;;4.40;78.52
17060;BME280;8646;49.716;9.266;2023-01-31T07:11:29;101184.25;;;4.35;79.02
17060;BME280;8646;49.716;9.266;2023-01-31T07:14:32;101189.59;;;4.38;79.04
17060;BME280;8646;49.716;9.266;2023-01-31T07:17:34;101196.75;;;4.36;79.67
17060;BME280;8646;49.716;9.266;2023-01-31T07:20:38;101203.88;;;4.46;79.58
17060;BME280;8646;49.716;9.266;2023-01-31T07:23:41;101201.16;;;4.53;79.58
17060;BME280;8646;49.716;9.266;2023-01-31T07:26:45;101193.97;;;4.60;79.23
17060;BME280;8646;49.716;9.266;2023-01-31T07:29:47;101200.19;;;4.68;79.04
17060;BME280;8646;49.716;9.266;2023-01-31T07:32:50;101209.97;;;4.71;78.83
17060;BME280;8646;49.716;9.266;2023-01-31T07:35:53;101201.94;;;4.72;78.79
17060;BME280;8646;49.716;9.266;2023-01-31T07:38:56;101209.03;;;4.79;78.21
17060;BME280;8646;49.716;9.266;2023-01-31T07:42:01;101211.72;;;4.81;78.60
17060;BME280;8646;49.716;9.266;2023-01-31T07:45:05;101215.28;;;4.84;79.01
17060;BME280;8646;49.716;9.266;2023-01-31T07:48:23;101216.00;;;5.14;79.12
17060;BME280;8646;49.716;9.266;2023-01-31T07:51:26;101217.75;;;5.19;78.36
17060;BME280;8646;49.716;9.266;2023-01-31T07:54:29;101216.84;;;5.20;77.34
17060;BME280;8646;49.716;9.266;2023-01-31T07:57:33;101222.25;;;5.19;76.97
17060;BME280;8646;49.716;9.266;2023-01-31T08:00:36;101194.59;;;5.08;76.82
17060;BME280;8646;49.716;9.266;2023-01-31T08:03:57;101223.19;;;5.09;77.01
17060;BME280;8646;49.716;9.266;2023-01-31T08:07:18;101222.25;;;5.14;76.68
17060;BME280;8646;49.716;9.266;2023-01-31T08:10:21;101217.78;;;5.12;77.04
17060;BME280;8646;49.716;9.266;2023-01-31T08:13:25;101220.47;;;5.15;76.73
17060;BME280;8646;49.716;9.266;2023-01-31T08:16:29;101219.56;;;5.14;76.78
17060;BME280;8646;49.716;9.266;2023-01-31T08:19:32;101224.03;;;5.17;76.61
17060;BME280;8646;49.716;9.266;2023-01-31T08:22:35;101220.47;;;5.16;76.50
17060;BME280;8646;49.716;9.266;2023-01-31T08:25:38;101217.78;;;5.18;76.44
17060;BME280;8646;49.716;9.266;2023-01-31T08:28:43;101215.94;;;5.23;76.60
17060;BME280;8646;49.716;9.266;2023-01-31T08:31:46;101221.25;;;5.33;76.12
17060;BME280;8646;49.716;9.266;2023-01-31T08:34:52;101214.84;;;5.51;75.88
17060;BME280;8646;49.716;9.266;2023-01-31T08:37:55;101216.53;;;5.64;76.01
17060;BME280;8646;49.716;9.266;2023-01-31T08:41:17;101212.00;;;5.69;75.57
17060;BME280;8646;49.716;9.266;2023-01-31T08:44:21;101213.69;;;5.80;74.55
17060;BME280;8646;49.716;9.266;2023-01-31T08:47:24;101218.19;;;5.79;74.79
17060;BME280;8646;49.716;9.266;2023-01-31T08:50:28;101216.41;;;5.78;74.60
17060;BME280;8646;49.716;9.266;2023-01-31T08:53:33;101212.81;;;5.79;73.98
17060;BME280;8646;49.716;9.266;2023-01-31T08:56:36;101218.09;;;5.87;73.46
17060;BME280;8646;49.716;9.266;2023-01-31T08:59:41;101219.06;;;5.83;73.37
17060;BME280;8646;49.716;9.266;2023-01-31T09:02:44;101223.53;;;5.82;73.40
17060;BME280;8646;49.716;9.266;2023-01-31T09:05:47;101228.94;;;5.76;73.84
17060;BME280;8646;49.716;9.266;2023-01-31T09:08:50;101219.06;;;5.80;73.74
17060;BME280;8646;49.716;9.266;2023-01-31T09:11:53;101215.47;;;5.81;73.75
17060;BME280;8646;49.716;9.266;2023-01-31T09:14:57;101216.31;;;5.86;73.58
17060;BME280;8646;49.716;9.266;2023-01-31T09:17:59;101211.84;;;5.91;73.73
17060;BME280;8646;49.716;9.266;2023-01-31T09:21:03;101228.78;;;5.97;73.12
17060;BME280;8646;49.716;9.266;2023-01-31T09:24:08;101235.91;;;6.01;73.23
17060;BME280;8646;49.716;9.266;2023-01-31T09:27:12;101227.84;;;6.01;72.94
17060;BME280;8646;49.716;9.266;2023-01-31T09:30:16;101211.75;;;6.00;72.87
17060;BME280;8646;49.716;9.266;2023-01-31T09:33:20;101209.00;;;6.06;72.50
17060;BME280;8646;49.716;9.266;2023-01-31T09:36:23;101204.47;;;6.09;72.58
17060;BME280;8646;49.716;9.266;2023-01-31T09:39:26;101215.31;;;6.02;72.13
17060;BME280;8646;49.716;9.266;2023-01-31T09:42:32;101217.22;;;5.86;72.27
17060;BME280;8646;49.716;9.266;2023-01-31T09:45:39;101215.50;;;5.76;72.65
17060;BME280;8646;49.716;9.266;2023-01-31T09:48:47;101200.28;;;5.78;72.59
17060;BME280;8646;49.716;9.266;2023-01-31T09:51:55;101204.81;;;5.74;72.78
17060;BME280;8646;49.716;9.266;2023-01-31T09:55:00;101194.16;;;5.64;72.69
17060;BME280;8646;49.716;9.266;2023-01-31T09:58:07;101209.50;;;5.50;73.18
17060;BME280;8646;49.716;9.266;2023-01-31T10:01:22;101198.78;;;5.45;73.54
17060;BME280;8646;49.716;9.266;2023-01-31T10:04:39;101204.13;;;5.45;73.60
17060;BME280;8646;49.716;9.266;2023-01-31T10:07:49;101194.28;;;5.50;73.83
17060;BME280;8646;49.716;9.266;2023-01-31T10:10:58;101202.81;;;5.98;74.00
17060;BME280;8646;49.716;9.266;2023-01-31T10:14:12;101195.13;;;6.45;73.01
17060;BME280;8646;49.716;9.266;2023-01-31T10:17:22;101175.19;;;6.62;72.15
17060;BME280;8646;49.716;9.266;2023-01-31T10:20:33;101179.19;;;6.96;71.84
17060;BME280;8646;49.716;9.266;2023-01-31T10:23:40;101185.13;;;7.21;70.96
17060;BME280;8646;49.716;9.266;2023-01-31T10:26:47;101165.41;;;7.17;70.47
17060;BME280;8646;49.716;9.266;2023-01-31T10:29:54;101175.94;;;7.31;70.04
17060;BME280;8646;49.716;9.266;2023-01-31T10:33:10;101169.59;;;7.37;70.08
17060;BME280;8646;49.716;9.266;2023-01-31T10:36:24;101163.31;;;7.38;69.57
17060;BME280;8646;49.716;9.266;2023-01-31T10:39:31;101179.66;;;7.25;70.00
17060;BME280;8646;49.716;9.266;2023-01-31T10:42:37;101179.84;;;7.13;70.10
17060;BME280;8646;49.716;9.266;2023-01-31T10:45:41;101173.69;;;7.05;69.85
17060;BME280;8646;49.716;9.266;2023-01-31T10:48:46;101161.28;;;6.94;70.46
17060;BME280;8646;49.716;9.266;2023-01-31T10:52:02;101157.69;;;6.96;70.45
17060;BME280;8646;49.716;9.266;2023-01-31T10:55:25;101147.75;;;6.98;70.81
17060;BME280;8646;49.716;9.266;2023-01-31T10:58:31;101136.00;;;7.05;70.58
17060;BME280;8646;49.716;9.266;2023-01-31T11:01:35;101117.16;;;7.05;70.83
17060;BME280;8646;49.716;9.266;2023-01-31T11:04:41;101131.53;;;7.04;71.03
17060;BME280;8646;49.716;9.266;2023-01-31T11:07:44;101132.38;;;7.06;71.05
17060;BME280;8646;49.716;9.266;2023-01-31T11:10:49;101116.22;;;7.08;71.20
17060;BME280;8646;49.716;9.266;2023-01-31T11:13:55;101118.06;;;7.04;71.18
17060;BME280;8646;49.716;9.266;2023-01-31T11:17:01;101106.41;;;7.05;70.93
17060;BME280;8646;49.716;9.266;2023-01-31T11:20:18;101096.59;;;7.00;71.15
17060;BME280;8646;49.716;9.266;2023-01-31T11:23:24;101093.94;;;6.98;71.13
17060;BME280;8646;49.716;9.266;2023-01-31T11:26:30;101086.78;;;6.97;70.83
17060;BME280;8646;49.716;9.266;2023-01-31T11:29:35;101081.41;;;6.97;70.80
17060;BME280;8646;49.716;9.266;2023-01-31T11:32:42;101085.00;;;6.96;70.52
17060;BME280;8646;49.716;9.266;2023-01-31T11:35:50;101061.72;;;6.94;70.72
17060;BME280;8646;49.716;9.266;2023-01-31T11:38:53;101069.75;;;6.97;70.83
17060;BME280;8646;49.716;9.266;2023-01-31T11:41:56;101053.53;;;7.01;71.05
17060;BME280;8646;49.716;9.266;2023-01-31T11:45:01;101041.84;;;7.02;70.95
17060;BME280;8646;49.716;9.266;2023-01-31T11:48:05;101049.00;;;7.03;70.99
17060;BME280;8646;49.716;9.266;2023-01-31T11:51:24;101047.28;;;6.98;71.11
17060;BME280;8646;49.716;9.266;2023-01-31T11:54:30;101041.88;;;6.99;70.61
17060;BME280;8646;49.716;9.266;2023-01-31T11:57:34;101034.69;;;7.01;70.87
17060;BME280;8646;49.716;9.266;2023-01-31T12:00:50;101013.16;;;7.01;70.92
17060;BME280;8646;49.716;9.266;2023-01-31T12:03:55;101029.00;;;7.19;70.02
17060;BME280;8646;49.716;9.266;2023-01-31T12:07:20;101030.81;;;7.17;70.21
17060;BME280;8646;49.716;9.266;2023-01-31T12:10:31;101026.19;;;7.25;69.63
17060;BME280;8646;49.716;9.266;2023-01-31T12:13:45;101036.00;;;7.30;70.25
17060;BME280;8646;49.716;9.266;2023-01-31T12:16:48;101000.28;;;7.18;69.75
17060;BME280;8646;49.716;9.266;2023-01-31T12:20:11;101009.28;;;7.17;70.00
17060;BME280;8646;49.716;9.266;2023-01-31T12:23:36;101009.41;;;7.10;70.01
17060;BME280;8646;49.716;9.266;2023-01-31T12:26:44;101002.38;;;7.03;70.28
17060;BME280;8646;49.716;9.266;2023-01-31T12:30:10;101025.75;;;6.99;70.78
17060;BME280;8646;49.716;9.266;2023-01-31T12:33:30;101009.72;;;6.93;70.64
17060;BME280;8646;49.716;9.266;2023-01-31T12:36:46;101004.38;;;6.90;70.76
17060;BME280;8646;49.716;9.266;2023-01-31T12:40:14;100988.47;;;6.75;71.15
17060;BME280;8646;49.716;9.266;2023-01-31T12:43:49;101001.03;;;6.74;71.11
17060;BME280;8646;49.716;9.266;2023-01-31T12:47:08;100996.75;;;6.64;71.70
17060;BME280;8646;49.716;9.266;2023-01-31T12:50:33;100990.59;;;6.56;71.52
17060;BME280;8646;49.716;9.266;2023-01-31T12:53:49;101003.09;;;6.59;71.77
17060;BME280;8646;49.716;9.266;2023-01-31T12:57:07;100984.38;;;6.53;72.55
17060;BME280;8646;49.716;9.266;2023-01-31T13:00:24;100943.00;;;6.61;72.07
17060;BME280;8646;49.716;9.266;2023-01-31T13:03:45;100936.72;;;6.61;72.52
17060;BME280;8646;49.716;9.266;2023-01-31T13:06:52;100942.06;;;6.64;72.65
17060;BME280;8646;49.716;9.266;2023-01-31T13:09:59;100924.97;;;6.66;72.50
17060;BME280;8646;49.716;9.266;2023-01-31T13:13:10;100941.19;;;6.62;72.76
17060;BME280;8646;49.716;9.266;2023-01-31T13:16:19;100928.63;;;6.64;72.92
17060;BME280;8646;49.716;9.266;2023-01-31T13:19:26;100915.16;;;6.64;72.79
17060;BME280;8646;49.716;9.266;2023-01-31T13:22:34;100916.94;;;6.65;72.83
17060;BME280;8646;49.716;9.266;2023-01-31T13:25:46;100906.13;;;6.66;72.80
17060;BME280;8646;49.716;9.266;2023-01-31T13:28:56;100897.13;;;6.70;72.96
17060;BME280;8646;49.716;9.266;2023-01-31T13:32:03;100877.34;;;6.73;72.94
17060;BME280;8646;49.716;9.266;2023-01-31T13:35:14;100881.78;;;6.74;72.62
17060;BME280;8646;49.716;9.266;2023-01-31T13:38:19;100884.56;;;6.71;72.77
17060;BME280;8646;49.716;9.266;2023-01-31T13:41:26;100865.75;;;6.69;72.68
17060;BME280;8646;49.716;9.266;2023-01-31T13:44:31;100854.22;;;6.63;72.47
17060;BME280;8646;49.716;9.266;2023-01-31T13:47:40;100861.25;;;6.70;72.75
17060;BME280;8646;49.716;9.266;2023-01-31T13:50:50;100860.34;;;6.71;72.33
17060;BME280;8646;49.716;9.266;2023-01-31T13:53:57;100870.25;;;6.69;72.38
17060;BME280;8646;49.716;9.266;2023-01-31T13:57:01;100859.47;;;6.69;72.30
17060;BME280;8646;49.716;9.266;2023-01-31T14:00:17;100862.06;;;6.73;72.06
17060;BME280;8646;49.716;9.266;2023-01-31T14:03:26;100854.09;;;6.69;72.13
17060;BME280;8646;49.716;9.266;2023-01-31T14:06:52;100854.97;;;6.71;72.19
17060;BME280;8646;49.716;9.266;2023-01-31T14:13:41;100853.94;;;6.78;72.43
17060;BME280;8646;49.716;9.266;2023-01-31T14:16:46;100859.28;;;6.81;72.00
17060;BME280;8646;49.716;9.266;2023-01-31T14:20:04;100862.00;;;6.78;72.02
17060;BME280;8646;49.716;9.266;2023-01-31T14:23:31;100863.81;;;6.77;72.43
17060;BME280;8646;49.716;9.266;2023-01-31T14:26:53;100874.47;;;6.82;72.51
17060;BME280;8646;49.716;9.266;2023-01-31T14:30:06;100858.44;;;6.76;72.19
17060;BME280;8646;49.716;9.266;2023-01-31T14:33:20;100864.75;;;6.75;72.32
17060;BME280;8646;49.716;9.266;2023-01-31T14:36:40;100860.38;;;6.69;72.80
17060;BME280;8646;49.716;9.266;2023-01-31T14:40:03;100873.72;;;6.74;72.82
17060;BME280;8646;49.716;9.266;2023-01-31T14:43:26;100879.28;;;6.65;73.00
17060;BME280;8646;49.716;9.266;2023-01-31T14:46:39;100867.81;;;6.55;73.10
17060;BME280;8646;49.716;9.266;2023-01-31T14:50:02;100887.38;;;6.63;73.45
17060;BME280;8646;49.716;9.266;2023-01-31T14:53:34;100872.19;;;6.61;73.83
17060;BME280;8646;49.716;9.266;2023-01-31T14:56:51;100872.22;;;6.58;74.50
17060;BME280;8646;49.716;9.266;2023-01-31T14:59:57;100864.22;;;6.55;75.04
17060;BME280;8646;49.716;9.266;2023-01-31T15:03:04;100871.34;;;6.57;75.16
17060;BME280;8646;49.716;9.266;2023-01-31T15:06:13;100846.38;;;6.49;75.12
17060;BME280;8646;49.716;9.266;2023-01-31T15:09:35;100867.84;;;6.52;75.66
17060;BME280;8646;49.716;9.266;2023-01-31T15:12:52;100866.91;;;6.55;75.38
17060;BME280;8646;49.716;9.266;2023-01-31T15:15:56;100869.66;;;6.51;75.82
17060;BME280;8646;49.716;9.266;2023-01-31T15:19:05;100877.72;;;6.51;75.86
17060;BME280;8646;49.716;9.266;2023-01-31T15:22:10;100879.47;;;6.54;75.75
17060;BME280;8646;49.716;9.266;2023-01-31T15:25:22;100880.38;;;6.55;75.83
17060;BME280;8646;49.716;9.266;2023-01-31T15:28:29;100874.13;;;6.53;75.91
17060;BME280;8646;49.716;9.266;2023-01-31T15:31:39;100872.47;;;6.45;76.01
17060;BME280;8646;49.716;9.266;2023-01-31T15:34:49;100874.09;;;6.54;76.24
17060;BME280;8646;49.716;9.266;2023-01-31T15:37:59;100862.44;;;6.55;76.10
17060;BME280;8646;49.716;9.266;2023-01-31T15:41:15;100877.72;;;6.51;76.27
17060;BME280;8646;49.716;9.266;2023-01-31T15:44:20;100879.50;;;6.53;76.49
17060;BME280;8646;49.716;9.266;2023-01-31T15:47:24;100889.41;;;6.49;76.32
17060;BME280;8646;49.716;9.266;2023-01-31T15:50:28;100895.75;;;6.46;76.47
17060;BME280;8646;49.716;9.266;2023-01-31T15:53:33;100883.22;;;6.45;76.57
17060;BME280;8646;49.716;9.266;2023-01-31T15:56:38;100885.81;;;6.50;76.65
17060;BME280;8646;49.716;9.266;2023-01-31T15:59:43;100885.91;;;6.44;77.41
17060;BME280;8646;49.716;9.266;2023-01-31T16:02:48;100882.38;;;6.42;77.66
17060;BME280;8646;49.716;9.266;2023-01-31T16:06:01;100890.47;;;6.40;78.09
17060;BME280;8646;49.716;9.266;2023-01-31T16:09:22;100895.00;;;6.37;78.13
17060;BME280;8646;49.716;9.266;2023-01-31T16:12:26;100895.91;;;6.37;78.33
17060;BME280;8646;49.716;9.266;2023-01-31T16:15:30;100890.53;;;6.37;78.64
17060;BME280;8646;49.716;9.266;2023-01-31T16:18:34;100895.91;;;6.37;78.88
17060;BME280;8646;49.716;9.266;2023-01-31T16:21:40;100892.34;;;6.35;79.57
17060;BME280;8646;49.716;9.266;2023-01-31T16:24:53;100905.78;;;6.34;79.43
17060;BME280;8646;49.716;9.266;2023-01-31T16:27:56;100900.38;;;6.37;79.79
17060;BME280;8646;49.716;9.266;2023-01-31T16:31:04;100885.16;;;6.37;80.13
17060;BME280;8646;49.716;9.266;2023-01-31T16:34:19;100878.88;;;6.37;79.85
17060;BME280;8646;49.716;9.266;2023-01-31T16:37:30;100884.25;;;6.37;80.28
17060;BME280;8646;49.716;9.266;2023-01-31T16:40:36;100877.97;;;6.36;80.39
17060;BME280;8646;49.716;9.266;2023-01-31T16:43:49;100888.78;;;6.33;80.79
17060;BME280;8646;49.716;9.266;2023-01-31T16:46:53;100887.88;;;6.34;80.66
17060;BME280;8646;49.716;9.266;2023-01-31T16:50:23;100879.81;;;6.33;80.84
17060;BME280;8646;49.716;9.266;2023-01-31T16:53:43;100876.22;;;6.35;80.88